Time;durP1;ratioP1;P1;durP2;ratioP2;P2;SDS_P1;SDS_P2;PMS_P1;PMS_P2;Temp;Humidity;BMP_temperature;BMP_pressure;BME280_temperature;BME280_humidity;BME280_pressure;Samples;Min_cycle;Max_cycle;Signal;HPM_P1;HPM_P2
2022/09/01 00:00:12;;;;;;;30.17;21.83;;;;;;;14.50;100.00;96157.63;1032744;28;20113;-70
2022/09/01 00:00:48;;;;;;;28.55;23.33;;;;;;;14.49;100.00;96154.19;1030909;28;20030;-70
2022/09/01 00:01:20;;;;;;;34.08;22.23;;;;;;;14.51;100.00;96151.28;1031479;28;20022;-70
2022/09/01 00:01:51;;;;;;;34.22;22.15;;;;;;;14.51;100.00;96159.22;1030815;28;20039;-69
2022/09/01 00:02:25;;;;;;;28.15;21.02;;;;;;;14.52;100.00;96158.13;1036346;28;20025;-69
2022/09/01 00:02:56;;;;;;;30.00;20.98;;;;;;;14.43;100.00;96144.72;1039050;28;20025;-70
2022/09/01 00:03:27;;;;;;;32.13;21.13;;;;;;;14.50;100.00;96158.44;1032418;28;20512;-69
2022/09/01 00:04:02;;;;;;;28.58;21.67;;;;;;;14.51;100.00;96160.00;1034043;28;20033;-69
2022/09/01 00:04:37;;;;;;;28.17;21.77;;;;;;;14.44;100.00;96145.50;1034991;28;20064;-70
2022/09/01 00:05:08;;;;;;;26.95;21.55;;;;;;;14.48;100.00;96154.44;1032117;28;20030;-69
2022/09/01 00:05:40;;;;;;;28.30;21.52;;;;;;;14.41;100.00;96146.06;1036301;28;20084;-70
2022/09/01 00:06:10;;;;;;;29.77;22.30;;;;;;;14.49;100.00;96161.34;1035019;28;20029;-69
2022/09/01 00:06:41;;;;;;;29.83;22.23;;;;;;;14.46;100.00;96160.03;1035180;28;20029;-69
2022/09/01 00:07:11;;;;;;;29.13;22.13;;;;;;;14.45;100.00;96160.28;1030898;28;20105;-69
2022/09/01 00:07:42;;;;;;;26.63;21.70;;;;;;;14.49;100.00;96161.34;1027210;28;20107;-70
2022/09/01 00:08:12;;;;;;;31.13;22.85;;;;;;;14.51;100.00;96161.84;1021367;28;20074;-70
2022/09/01 00:08:43;;;;;;;26.55;21.63;;;;;;;14.48;100.00;96160.53;1030998;28;20073;-70
2022/09/01 00:09:15;;;;;;;28.90;22.40;;;;;;;14.43;100.00;96157.94;1030203;28;20030;-69
2022/09/01 00:09:46;;;;;;;29.48;22.50;;;;;;;14.49;100.00;96158.69;1023607;28;20644;-69
2022/09/01 00:10:16;;;;;;;26.88;22.17;;;;;;;14.50;100.00;96157.63;1034854;28;20037;-69
2022/09/01 00:10:47;;;;;;;28.25;21.40;;;;;;;14.51;100.00;96160.00;1035160;28;20135;-70
2022/09/01 00:11:18;;;;;;;30.70;21.42;;;;;;;14.55;100.00;96162.88;1035097;28;20117;-70
2022/09/01 00:11:52;;;;;;;29.48;22.13;;;;;;;14.52;100.00;96147.56;1034864;28;20025;-70
2022/09/01 00:12:24;;;;;;;30.20;22.05;;;;;;;14.57;100.00;96155.47;1034729;28;20030;-70
2022/09/01 00:12:55;;;;;;;28.80;20.90;;;;;;;14.59;100.00;96156.78;1035712;28;20617;-69
2022/09/01 00:13:25;;;;;;;27.80;21.02;;;;;;;14.63;100.00;96162.28;1040190;28;20033;-69
2022/09/01 00:13:56;;;;;;;27.73;21.55;;;;;;;14.65;100.00;96162.00;1046799;28;20070;-69
2022/09/01 00:14:29;;;;;;;27.60;21.85;;;;;;;14.59;100.00;96156.00;1043305;28;20029;-70
2022/09/01 00:15:00;;;;;;;26.23;21.20;;;;;;;14.61;100.00;96156.50;1038783;28;20029;-69
2022/09/01 00:15:31;;;;;;;26.52;21.42;;;;;;;14.63;100.00;96153.59;1038935;28;20455;-69
2022/09/01 00:16:02;;;;;;;29.58;22.75;;;;;;;14.67;100.00;96155.38;1039034;28;20522;-70
2022/09/01 00:16:33;;;;;;;28.30;21.58;;;;;;;14.63;100.00;96157.00;1031056;28;20089;-70
2022/09/01 00:17:05;;;;;;;29.73;21.17;;;;;;;14.59;100.00;96148.06;1030759;28;20031;-70
2022/09/01 00:17:36;;;;;;;27.92;21.35;;;;;;;14.61;100.00;96153.84;1022752;29;20246;-69
2022/09/01 00:18:06;;;;;;;27.40;21.48;;;;;;;14.60;100.00;96144.34;1022826;29;20035;-69
2022/09/01 00:18:37;;;;;;;28.42;22.92;;;;;;;14.56;100.00;96148.63;1026838;28;20035;-70
2022/09/01 00:19:07;;;;;;;26.73;21.23;;;;;;;14.59;100.00;96148.06;1026320;28;20114;-69
2022/09/01 00:19:38;;;;;;;28.20;22.27;;;;;;;14.61;100.00;96153.84;1034861;28;20062;-71
2022/09/01 00:20:09;;;;;;;26.27;21.13;;;;;;;14.63;100.00;96157.00;1038858;28;20079;-69
2022/09/01 00:20:40;;;;;;;28.27;22.77;;;;;;;14.59;100.00;96154.13;1034958;28;21168;-68
2022/09/01 00:21:10;;;;;;;28.88;22.35;;;;;;;14.57;100.00;96144.91;1034919;28;20034;-70
2022/09/01 00:21:43;;;;;;;32.38;21.80;;;;;;;14.63;100.00;96153.59;1030885;28;20420;-70
2022/09/01 00:22:13;;;;;;;27.40;21.98;;;;;;;14.63;100.00;96154.38;1031233;28;20050;-69
2022/09/01 00:22:44;;;;;;;28.25;22.55;;;;;;;14.61;100.00;96151.19;1034827;28;20986;-70
2022/09/01 00:23:14;;;;;;;31.95;22.42;;;;;;;14.59;100.00;96153.34;1035326;28;20025;-70
2022/09/01 00:23:45;;;;;;;29.35;22.77;;;;;;;14.59;100.00;96146.22;1038872;28;20026;-69
2022/09/01 00:24:16;;;;;;;26.23;21.75;;;;;;;14.49;100.00;96132.28;1034871;28;20025;-69
2022/09/01 00:24:46;;;;;;;32.22;22.67;;;;;;;14.65;100.00;96154.06;1038864;28;20418;-68
2022/09/01 00:25:18;;;;;;;28.77;21.63;;;;;;;14.61;100.00;96145.91;1030681;28;20065;-69
2022/09/01 00:25:49;;;;;;;27.67;22.17;;;;;;;14.60;100.00;96155.69;1031429;28;20034;-70
2022/09/01 00:26:19;;;;;;;30.65;21.83;;;;;;;14.56;100.00;96148.63;1038862;28;20031;-70
2022/09/01 00:26:50;;;;;;;27.65;21.95;;;;;;;14.57;100.00;96152.84;1031008;28;20022;-69
2022/09/01 00:27:20;;;;;;;30.15;22.02;;;;;;;14.58;100.00;96147.25;1030743;28;20093;-70
2022/09/01 00:27:51;;;;;;;31.10;23.20;;;;;;;14.58;100.00;96143.84;1030838;28;20911;-69
2022/09/01 00:28:21;;;;;;;30.45;23.40;;;;;;;14.53;100.00;96135.97;1026814;28;20042;-69
2022/09/01 00:28:52;;;;;;;29.67;21.55;;;;;;;14.55;100.00;96139.91;1026624;28;20023;-69
2022/09/01 00:29:22;;;;;;;27.05;22.13;;;;;;;14.57;100.00;96144.91;1021973;29;20513;-69
2022/09/01 00:29:53;;;;;;;33.78;22.60;;;;;;;14.56;100.00;96143.34;1022795;29;20058;-70
2022/09/01 00:30:23;;;;;;;29.02;22.08;;;;;;;14.52;100.00;96137.00;1024685;28;20038;-70
2022/09/01 00:30:54;;;;;;;30.25;22.50;;;;;;;14.56;100.00;96140.69;1026521;28;20026;-70
2022/09/01 00:31:24;;;;;;;30.63;21.73;;;;;;;14.51;100.00;96141.50;1034816;28;20156;-69
2022/09/01 00:31:55;;;;;;;36.25;22.50;;;;;;;14.54;100.00;96146.25;1030665;28;20499;-68
2022/09/01 00:32:26;;;;;;;29.00;22.00;;;;;;;14.56;100.00;96148.63;1026851;28;20030;-69
2022/09/01 00:32:56;;;;;;;37.42;23.23;;;;;;;14.57;100.00;96144.91;1030676;28;20076;-70
2022/09/01 00:33:27;;;;;;;31.30;22.15;;;;;;;14.52;100.00;96143.09;1030861;28;20924;-70
2022/09/01 00:33:58;;;;;;;30.27;23.00;;;;;;;14.55;100.00;96141.75;1030340;28;20018;-69
2022/09/01 00:34:28;;;;;;;32.83;22.95;;;;;;;14.52;100.00;96139.66;1030577;28;20113;-70
2022/09/01 00:34:59;;;;;;;35.78;23.05;;;;;;;14.52;100.00;96143.09;1030820;28;20056;-70
2022/09/01 00:35:29;;;;;;;32.30;23.38;;;;;;;14.53;100.00;96138.63;1030765;28;20420;-69
2022/09/01 00:36:00;;;;;;;29.38;22.58;;;;;;;14.53;100.00;96143.91;1030804;28;20022;-70
2022/09/01 00:36:30;;;;;;;32.03;22.55;;;;;;;14.51;100.00;96146.00;1030979;28;20030;-70
2022/09/01 00:37:01;;;;;;;30.40;23.02;;;;;;;14.30;100.00;96114.47;1034784;28;20221;-69
2022/09/01 00:37:31;;;;;;;28.45;22.63;;;;;;;14.49;100.00;96138.34;1034798;28;20014;-69
2022/09/01 00:38:02;;;;;;;37.33;23.67;;;;;;;14.49;100.00;96145.50;1038989;28;20017;-70
2022/09/01 00:38:32;;;;;;;33.03;24.30;;;;;;;14.41;100.00;96135.50;1038928;28;20087;-70
2022/09/01 00:39:03;;;;;;;32.35;24.63;;;;;;;14.47;100.00;96147.59;1030270;28;20423;-69
2022/09/01 00:39:34;;;;;;;29.05;22.38;;;;;;;14.46;100.00;96140.75;1034531;28;20026;-70
2022/09/01 00:40:05;;;;;;;34.72;23.85;;;;;;;14.45;100.00;96141.81;1030656;28;20106;-70
2022/09/01 00:40:36;;;;;;;30.60;23.52;;;;;;;14.43;100.00;96139.44;1023233;28;20106;-69
2022/09/01 00:41:07;;;;;;;31.88;23.95;;;;;;;14.42;100.00;96139.72;1028689;28;20436;-69
2022/09/01 00:41:38;;;;;;;33.15;23.35;;;;;;;14.45;100.00;96147.09;1030938;28;20026;-69
2022/09/01 00:42:08;;;;;;;29.55;23.02;;;;;;;14.43;100.00;96133.38;1031069;28;20293;-70
2022/09/01 00:42:39;;;;;;;33.40;23.92;;;;;;;14.45;100.00;96142.59;1035230;28;20373;-69
2022/09/01 00:43:14;;;;;;;31.25;23.38;;;;;;;14.46;100.00;96148.69;1038727;28;20108;-69
2022/09/01 00:43:47;;;;;;;31.80;23.38;;;;;;;14.47;100.00;96140.47;1035400;28;20018;-70
2022/09/01 00:44:22;;;;;;;33.70;23.98;;;;;;;14.45;100.00;96139.16;1034668;28;20055;-69
2022/09/01 00:44:52;;;;;;;31.08;22.42;;;;;;;14.48;100.00;96142.03;1032343;28;20041;-69
2022/09/01 00:45:23;;;;;;;31.30;22.83;;;;;;;14.49;100.00;96138.34;1035688;28;20088;-70
2022/09/01 00:45:53;;;;;;;30.38;23.20;;;;;;;14.48;100.00;96147.31;1039652;28;20028;-70
2022/09/01 00:46:26;;;;;;;31.70;22.65;;;;;;;14.48;100.00;96142.03;1041216;28;20021;-69
2022/09/01 00:46:57;;;;;;;31.23;24.30;;;;;;;14.41;100.00;96136.28;1038671;28;20477;-70
2022/09/01 00:47:27;;;;;;;32.90;23.52;;;;;;;14.46;100.00;96144.19;1030486;28;20030;-69
2022/09/01 00:47:58;;;;;;;31.27;23.33;;;;;;;14.50;100.00;96147.06;1026568;28;20388;-70
2022/09/01 00:48:28;;;;;;;33.28;25.15;;;;;;;14.49;100.00;96148.13;1027005;28;20065;-69
2022/09/01 00:49:02;;;;;;;31.05;23.33;;;;;;;14.50;100.00;96147.88;1034912;28;20026;-69
2022/09/01 00:49:42;;;;;;;33.97;24.02;;;;;;;14.50;100.00;96144.41;1042483;28;20118;-69
2022/09/01 00:50:14;;;;;;;33.67;23.65;;;;;;;14.46;100.00;96140.75;1028404;28;20140;-69
2022/09/01 00:50:45;;;;;;;28.90;23.08;;;;;;;14.43;100.00;96138.66;1026785;28;20048;-70
2022/09/01 00:51:15;;;;;;;32.60;24.23;;;;;;;14.34;100.00;96136.59;1026570;28;20109;-69
2022/09/01 00:51:48;;;;;;;29.33;23.33;;;;;;;14.39;100.00;96149.00;1035046;28;20093;-69
2022/09/01 00:52:29;;;;;;;29.75;23.80;;;;;;;14.43;100.00;96149.22;1030765;28;20018;-70
2022/09/01 00:53:00;;;;;;;35.75;23.08;;;;;;;14.38;100.00;96142.94;1030628;28;20022;-69
2022/09/01 00:53:31;;;;;;;33.10;23.58;;;;;;;14.39;100.00;96147.13;1018749;29;20023;-69
2022/09/01 00:54:01;;;;;;;31.67;23.60;;;;;;;14.39;100.00;96139.22;1034566;28;20407;-69
2022/09/01 00:54:34;;;;;;;28.95;22.73;;;;;;;14.41;100.00;96151.34;1030562;28;20034;-70
2022/09/01 00:55:16;;;;;;;35.42;25.20;;;;;;;14.37;100.00;96149.25;1030668;28;20038;-69
2022/09/01 00:55:47;;;;;;;35.35;24.95;;;;;;;14.39;100.00;96147.13;1027036;28;20022;-69
2022/09/01 00:56:17;;;;;;;32.85;23.50;;;;;;;14.41;100.00;96146.06;1024502;28;20568;-69
2022/09/01 00:56:48;;;;;;;32.10;24.88;;;;;;;14.39;100.00;96144.50;1026710;28;20046;-70
2022/09/01 00:57:18;;;;;;;36.40;24.30;;;;;;;14.29;100.00;96126.09;1030696;28;20437;-69
2022/09/01 00:57:49;;;;;;;32.63;24.00;;;;;;;14.37;100.00;96141.34;1038712;28;20101;-69
2022/09/01 00:58:19;;;;;;;31.88;23.80;;;;;;;14.41;100.00;96146.84;1026432;28;20094;-71
2022/09/01 00:58:50;;;;;;;35.30;24.30;;;;;;;14.42;100.00;96152.91;1026616;28;20112;-70
2022/09/01 00:59:21;;;;;;;32.63;24.88;;;;;;;14.41;100.00;96146.06;1026038;28;20045;-70
2022/09/01 01:00:00;;;;;;;36.75;25.08;;;;;;;14.44;100.00;96148.16;1022539;29;20452;-70
2022/09/01 01:00:32;;;;;;;36.92;25.00;;;;;;;14.40;100.00;96142.66;1026750;28;20404;-70
2022/09/01 01:01:04;;;;;;;33.33;24.10;;;;;;;14.39;100.00;96146.34;1030670;28;20018;-69
2022/09/01 01:01:35;;;;;;;31.80;24.20;;;;;;;14.37;100.00;96151.91;1026538;28;20026;-69
2022/09/01 01:02:06;;;;;;;36.22;25.98;;;;;;;14.36;100.00;96149.53;1026511;28;20427;-69
2022/09/01 01:02:37;;;;;;;36.70;25.33;;;;;;;14.32;100.00;96146.66;1027158;28;20101;-70
2022/09/01 01:03:11;;;;;;;38.10;25.45;;;;;;;14.28;100.00;96132.41;1028129;28;20027;-70
2022/09/01 01:03:45;;;;;;;35.70;25.38;;;;;;;14.41;100.00;96148.72;1034702;28;20696;-70
2022/09/01 01:04:16;;;;;;;34.67;24.45;;;;;;;14.44;100.00;96145.50;1030467;28;20428;-70
2022/09/01 01:04:46;;;;;;;35.25;25.23;;;;;;;14.45;100.00;96145.22;1032699;28;20026;-69
2022/09/01 01:05:17;;;;;;;35.17;25.30;;;;;;;14.47;100.00;96156.31;1039449;28;20567;-70
2022/09/01 01:05:54;;;;;;;30.10;23.27;;;;;;;14.42;100.00;96143.16;1030598;28;20030;-70
2022/09/01 01:06:27;;;;;;;30.30;23.17;;;;;;;14.44;100.00;96150.78;1030449;28;20057;-70
2022/09/01 01:07:00;;;;;;;30.08;23.25;;;;;;;14.44;100.00;96150.78;1030773;28;20513;-69
2022/09/01 01:07:41;;;;;;;31.92;24.63;;;;;;;14.45;100.00;96157.66;1026644;28;20058;-69
2022/09/01 01:08:11;;;;;;;32.78;24.30;;;;;;;14.46;100.00;96143.41;1023682;28;20035;-70
2022/09/01 01:08:56;;;;;;;32.45;24.00;;;;;;;14.45;100.00;96147.88;1030534;28;20034;-70
2022/09/01 01:09:31;;;;;;;33.65;23.95;;;;;;;14.48;100.00;96142.03;1025978;28;20023;-69
2022/09/01 01:10:02;;;;;;;32.92;23.75;;;;;;;14.41;100.00;96143.44;1026562;28;20026;-70
2022/09/01 01:10:36;;;;;;;34.25;24.63;;;;;;;14.45;100.00;96152.38;1026512;28;20034;-70
2022/09/01 01:11:16;;;;;;;32.88;24.73;;;;;;;14.46;100.00;96151.31;1026580;28;20011;-69
2022/09/01 01:11:46;;;;;;;;;;;;;;;14.48;100.00;96149.16;1033766;28;20057;-70
2022/09/01 01:12:17;;;;;;;32.70;24.58;;;;;;;14.43;100.00;96150.00;1034161;28;19992;-71
2022/09/01 01:12:50;;;;;;;32.38;24.25;;;;;;;14.41;100.00;96146.06;1030650;28;20535;-69
2022/09/01 01:13:23;;;;;;;31.00;24.40;;;;;;;14.45;100.00;96149.72;1019598;29;20540;-69
2022/09/01 01:14:04;;;;;;;33.60;24.13;;;;;;;14.46;100.00;96148.69;1027189;28;20041;-70
2022/09/01 01:14:35;;;;;;;32.97;24.67;;;;;;;14.49;100.00;96145.50;1034418;28;20017;-70
2022/09/01 01:15:07;;;;;;;29.45;23.88;;;;;;;14.49;100.00;96145.50;1032297;28;20173;-70
2022/09/01 01:15:42;;;;;;;30.58;23.70;;;;;;;14.50;100.00;96145.22;1022768;28;20027;-70
2022/09/01 01:16:14;;;;;;;31.17;23.80;;;;;;;14.49;100.00;96151.56;1029720;28;20476;-71
2022/09/01 01:16:46;;;;;;;33.70;24.00;;;;;;;14.46;100.00;96141.53;1024540;28;20022;-70
2022/09/01 01:17:20;;;;;;;33.22;24.95;;;;;;;14.46;100.00;96143.41;1030508;28;20032;-70
2022/09/01 01:17:51;;;;;;;34.03;23.48;;;;;;;14.48;100.00;96139.41;1030044;28;20015;-70
2022/09/01 01:18:21;;;;;;;35.13;23.75;;;;;;;14.50;100.00;96144.41;1026399;28;20019;-70
2022/09/01 01:18:52;;;;;;;31.02;24.45;;;;;;;14.47;100.00;96139.69;1034995;28;20384;-70
2022/09/01 01:23:26;;;;;;;33.42;23.58;;;;;;;14.43;100.00;96143.94;1010523;29;20505;-71
2022/09/01 01:24:18;;;;;;;31.35;22.05;;;;;;;14.39;100.00;96144.50;1006737;29;20120;-71
2022/09/01 01:24:51;;;;;;;30.98;21.83;;;;;;;14.41;100.00;96141.56;1002822;29;20029;-70
2022/09/01 01:25:22;;;;;;;31.67;22.25;;;;;;;14.39;100.00;96139.22;1008739;29;20059;-70
2022/09/01 01:25:56;;;;;;;27.92;22.20;;;;;;;14.43;100.00;96141.31;1011077;29;20033;-70
2022/09/01 01:26:27;;;;;;;29.83;21.80;;;;;;;14.44;100.00;96134.94;1022608;29;20069;-70
2022/09/01 01:26:58;;;;;;;28.65;22.92;;;;;;;14.43;100.00;96142.09;1030295;28;20542;-71
2022/09/01 01:27:33;;;;;;;26.73;22.00;;;;;;;14.43;100.00;96136.03;1030549;28;20017;-70
2022/09/01 01:28:09;;;;;;;30.17;23.10;;;;;;;14.44;100.00;96142.88;1030661;28;20018;-70
2022/09/01 01:28:41;;;;;;;27.30;22.60;;;;;;;14.42;100.00;96137.88;1034475;28;20021;-70
2022/09/01 01:29:12;;;;;;;28.42;22.23;;;;;;;14.44;100.00;96138.38;1029714;28;20027;-70
2022/09/01 01:29:43;;;;;;;27.25;22.17;;;;;;;14.41;100.00;96133.66;1026489;28;20027;-71
2022/09/01 01:30:16;;;;;;;29.33;22.30;;;;;;;14.42;100.00;96135.25;1030314;28;20019;-70
2022/09/01 01:30:52;;;;;;;28.83;21.83;;;;;;;14.39;100.00;96133.16;1026539;28;20025;-70
2022/09/01 01:31:23;;;;;;;29.85;22.13;;;;;;;14.41;100.00;96135.50;1030224;28;20064;-70
2022/09/01 01:31:54;;;;;;;30.15;22.77;;;;;;;14.41;100.00;96136.28;1030521;28;20030;-70
2022/09/01 01:32:25;;;;;;;29.23;22.42;;;;;;;14.41;100.00;96135.50;1038699;28;20124;-70
2022/09/01 01:32:56;;;;;;;30.58;22.55;;;;;;;14.41;100.00;96133.66;1034719;28;20037;-70
2022/09/01 01:33:35;;;;;;;27.25;21.80;;;;;;;14.21;100.00;96108.19;1022400;28;20032;-70
2022/09/01 01:34:06;;;;;;;28.10;22.65;;;;;;;14.39;100.00;96133.16;1026669;28;20073;-70
2022/09/01 01:34:42;;;;;;;29.55;21.85;;;;;;;14.38;100.00;96134.19;1022643;29;20045;-70
2022/09/01 01:35:14;;;;;;;29.10;22.55;;;;;;;14.37;100.00;96130.78;1026506;28;20045;-72
2022/09/01 01:35:45;;;;;;;27.80;23.08;;;;;;;14.35;100.00;96129.47;1030484;28;20080;-69
2022/09/01 01:36:20;;;;;;;29.50;23.05;;;;;;;14.35;100.00;96132.09;1026548;28;20104;-70
2022/09/01 01:36:50;;;;;;;31.48;23.17;;;;;;;14.32;100.00;96125.56;1022546;29;20031;-70
2022/09/01 01:37:23;;;;;;;30.90;23.40;;;;;;;14.33;100.00;96129.75;1030199;28;20049;-70
2022/09/01 01:37:53;;;;;;;29.35;22.92;;;;;;;14.33;100.00;96129.75;1026160;28;20334;-70
2022/09/01 01:38:24;;;;;;;28.35;23.10;;;;;;;14.32;100.00;96127.41;1022537;29;20523;-70
2022/09/01 01:38:56;;;;;;;28.25;22.52;;;;;;;14.31;100.00;96125.81;1022562;29;20086;-70
2022/09/01 01:39:27;;;;;;;30.52;22.83;;;;;;;14.29;100.00;96123.47;1028138;28;20053;-71
2022/09/01 01:39:58;;;;;;;28.58;23.35;;;;;;;14.27;100.00;96120.31;1030523;28;20030;-70
2022/09/01 01:40:28;;;;;;;28.55;22.85;;;;;;;14.29;100.00;96125.31;1034560;28;20170;-70
2022/09/01 01:41:00;;;;;;;29.50;23.30;;;;;;;14.26;100.00;96126.66;1034412;28;20025;-70
2022/09/01 01:41:31;;;;;;;33.00;22.80;;;;;;;14.26;100.00;96124.00;1030330;28;20114;-70
2022/09/01 01:42:02;;;;;;;30.25;23.65;;;;;;;14.28;100.00;96124.50;1022576;29;20058;-70
2022/09/01 01:42:33;;;;;;;29.60;24.23;;;;;;;14.27;100.00;96128.22;1034387;28;20037;-69
2022/09/01 01:43:04;;;;;;;30.05;24.63;;;;;;;14.25;100.00;96121.63;1030496;28;20125;-70
2022/09/01 01:43:35;;;;;;;29.52;23.63;;;;;;;14.26;100.00;96129.28;1030423;28;20562;-71
2022/09/01 01:44:05;;;;;;;29.58;22.95;;;;;;;14.23;100.00;96119.28;1022514;29;20059;-69
2022/09/01 01:44:37;;;;;;;32.05;23.20;;;;;;;14.23;100.00;96127.19;1022467;29;20027;-69
2022/09/01 01:45:11;;;;;;;30.73;23.52;;;;;;;14.23;100.00;96123.78;1026544;28;20089;-70
2022/09/01 01:45:41;;;;;;;30.83;24.42;;;;;;;14.25;100.00;96121.63;1026364;28;20031;-70
2022/09/01 01:46:14;;;;;;;30.67;23.67;;;;;;;14.26;100.00;96123.22;1023516;28;20031;-69
2022/09/01 01:46:48;;;;;;;29.50;23.80;;;;;;;14.24;100.00;96125.34;1030380;28;20026;-70
2022/09/01 01:47:20;;;;;;;31.50;23.40;;;;;;;14.23;100.00;96124.56;1035286;28;20025;-69
2022/09/01 01:47:55;;;;;;;28.50;23.08;;;;;;;14.24;100.00;96122.69;1026934;28;20070;-70
2022/09/01 01:48:27;;;;;;;28.27;23.33;;;;;;;14.23;100.00;96129.84;1031386;28;20598;-71
2022/09/01 01:48:57;;;;;;;31.67;23.85;;;;;;;14.23;100.00;96121.91;1023543;29;20035;-69
2022/09/01 01:49:29;;;;;;;32.92;23.42;;;;;;;14.23;100.00;96121.91;1019603;29;20034;-70
2022/09/01 01:50:00;;;;;;;31.65;24.52;;;;;;;14.24;100.00;96126.13;1023257;29;20069;-70
2022/09/01 01:50:34;;;;;;;28.92;22.90;;;;;;;14.22;100.00;96128.28;1023419;29;20484;-70
2022/09/01 01:51:05;;;;;;;27.70;22.60;;;;;;;14.20;100.00;96127.75;1031053;28;20034;-69
2022/09/01 01:51:35;;;;;;;30.35;23.98;;;;;;;14.22;100.00;96122.19;1031422;28;20038;-70
2022/09/01 01:52:06;;;;;;;32.22;24.05;;;;;;;14.20;100.00;96119.03;1027109;28;20111;-70
2022/09/01 01:52:36;;;;;;;32.97;24.67;;;;;;;14.18;100.00;96115.88;1035427;28;20080;-70
2022/09/01 01:53:07;;;;;;;32.00;22.73;;;;;;;14.24;100.00;96120.06;1031260;28;20030;-69
2022/09/01 01:53:38;;;;;;;31.85;23.95;;;;;;;14.23;100.00;96119.28;1023318;29;20528;-70
2022/09/01 01:54:09;;;;;;;29.58;22.73;;;;;;;14.22;100.00;96123.00;1027164;28;20042;-70
2022/09/01 01:54:40;;;;;;;31.95;23.80;;;;;;;14.23;100.00;96121.91;1027135;28;20053;-69
2022/09/01 01:55:11;;;;;;;30.33;23.95;;;;;;;14.21;100.00;96124.03;1027285;28;20110;-70
2022/09/01 01:55:42;;;;;;;31.88;24.40;;;;;;;14.20;100.00;96116.41;1023374;29;20038;-70
2022/09/01 01:56:13;;;;;;;30.92;24.02;;;;;;;14.16;100.00;96113.53;1035017;28;20396;-69
2022/09/01 01:56:43;;;;;;;32.78;23.83;;;;;;;14.20;100.00;96117.19;1023306;29;20027;-70
2022/09/01 01:57:16;;;;;;;34.00;24.42;;;;;;;14.20;100.00;96119.03;1023252;29;20067;-70
2022/09/01 01:57:49;;;;;;;30.08;23.17;;;;;;;14.15;100.00;96106.66;1023367;29;20128;-69
2022/09/01 01:58:20;;;;;;;29.88;24.38;;;;;;;14.18;100.00;96121.94;1031071;28;20053;-70
2022/09/01 01:58:53;;;;;;;29.75;22.92;;;;;;;14.16;100.00;96121.44;1023331;28;20392;-70
2022/09/01 01:59:25;;;;;;;30.95;23.30;;;;;;;14.14;100.00;96118.28;1026577;28;20540;-70
2022/09/01 01:59:55;;;;;;;30.80;23.83;;;;;;;14.14;100.00;96118.28;1031215;28;20050;-71
2022/09/01 02:00:28;;;;;;;31.55;23.98;;;;;;;14.14;100.00;96120.94;1031114;28;20026;-70
2022/09/01 02:00:59;;;;;;;32.20;24.50;;;;;;;14.13;100.00;96119.34;1027207;28;20066;-70
2022/09/01 02:01:30;;;;;;;31.13;24.38;;;;;;;14.16;100.00;96113.53;1027105;28;20027;-69
2022/09/01 02:02:02;;;;;;;31.65;23.95;;;;;;;14.17;100.00;96122.22;1027236;28;20023;-70
2022/09/01 02:02:32;;;;;;;37.25;24.33;;;;;;;14.14;100.00;96119.06;1027105;28;20061;-70
2022/09/01 02:03:04;;;;;;;29.40;24.13;;;;;;;14.14;100.00;96119.06;1035198;28;20084;-70
2022/09/01 02:03:37;;;;;;;32.72;24.40;;;;;;;14.15;100.00;96122.50;1027384;28;20058;-70
2022/09/01 02:04:09;;;;;;;30.88;24.60;;;;;;;14.08;100.00;96111.47;1027288;28;20455;-70
2022/09/01 02:04:41;;;;;;;31.38;24.60;;;;;;;14.17;100.00;96119.59;1030943;28;20052;-69
2022/09/01 02:05:11;;;;;;;31.55;25.02;;;;;;;14.17;100.00;96120.38;1027193;28;20154;-70
2022/09/01 02:05:42;;;;;;;32.20;24.25;;;;;;;14.15;100.00;96122.50;1019407;29;20603;-70
2022/09/01 02:06:12;;;;;;;39.53;25.40;;;;;;;14.19;100.00;96128.81;1031152;28;20038;-70
2022/09/01 02:06:46;;;;;;;30.95;24.60;;;;;;;14.12;100.00;96113.28;1031011;28;20109;-71
2022/09/01 02:07:17;;;;;;;31.33;23.67;;;;;;;14.18;100.00;96121.16;1023242;29;20122;-70
2022/09/01 02:07:49;;;;;;;30.00;23.75;;;;;;;14.19;100.00;96118.25;1035292;28;20047;-71
2022/09/01 02:08:20;;;;;;;32.30;24.30;;;;;;;14.19;100.00;96123.53;1027061;28;20026;-71
2022/09/01 02:08:51;;;;;;;28.30;22.92;;;;;;;14.15;100.00;96125.94;1023067;29;20178;-69
2022/09/01 02:09:22;;;;;;;31.88;24.63;;;;;;;14.17;100.00;96125.66;1038641;28;20033;-70
2022/09/01 02:09:52;;;;;;;32.00;23.85;;;;;;;14.19;100.00;96120.91;1028146;28;20318;-71
2022/09/01 02:10:30;;;;;;;30.48;23.70;;;;;;;14.15;100.00;96125.13;1031270;28;20026;-70
2022/09/01 02:11:01;;;;;;;32.17;24.42;;;;;;;14.11;100.00;96118.84;1027168;28;20510;-70
2022/09/01 02:11:32;;;;;;;30.63;24.02;;;;;;;14.15;100.00;96118.03;1028981;28;20023;-70
2022/09/01 02:12:03;;;;;;;30.65;23.92;;;;;;;14.16;100.00;96129.38;1024485;28;20022;-69
2022/09/01 02:12:34;;;;;;;32.58;23.80;;;;;;;14.17;100.00;96127.50;1022950;29;20035;-70
2022/09/01 02:13:06;;;;;;;31.50;24.23;;;;;;;14.17;100.00;96115.09;1030093;28;20026;-71
2022/09/01 02:13:36;;;;;;;31.33;23.98;;;;;;;14.14;100.00;96105.09;1026045;28;20052;-69
2022/09/01 02:14:07;;;;;;;33.90;24.08;;;;;;;14.11;100.00;96106.41;1031262;28;20117;-69
2022/09/01 02:14:38;;;;;;;32.70;24.75;;;;;;;14.00;100.00;96094.38;1031139;28;20034;-70
2022/09/01 02:15:10;;;;;;;30.73;23.50;;;;;;;14.18;100.00;96121.94;1022894;28;20062;-69
2022/09/01 02:15:44;;;;;;;30.92;23.58;;;;;;;14.18;100.00;96119.31;1027153;28;20535;-71
2022/09/01 02:16:15;;;;;;;29.45;23.33;;;;;;;14.18;100.00;96116.66;1027213;28;20030;-69
2022/09/01 02:16:46;;;;;;;29.80;23.52;;;;;;;14.17;100.00;96120.38;1024752;28;20038;-70
2022/09/01 02:17:16;;;;;;;34.42;26.73;;;;;;;14.19;100.00;96112.19;1023136;29;20047;-70
2022/09/01 02:17:47;;;;;;;31.48;24.52;;;;;;;14.17;100.00;96115.09;1031237;28;20104;-69
2022/09/01 02:18:22;;;;;;;33.08;24.73;;;;;;;14.18;100.00;96107.97;1026987;28;20125;-70
2022/09/01 02:18:53;;;;;;;35.05;25.35;;;;;;;14.07;100.00;96094.06;1027206;28;20045;-69
2022/09/01 02:19:23;;;;;;;31.13;24.42;;;;;;;14.19;100.00;96112.19;1022256;29;20053;-70
2022/09/01 02:19:56;;;;;;;31.92;24.40;;;;;;;14.18;100.00;96108.75;1031205;28;20123;-69
2022/09/01 02:20:31;;;;;;;32.15;24.13;;;;;;;14.18;100.00;96108.75;1030981;28;20469;-70
2022/09/01 02:21:09;;;;;;;29.40;23.30;;;;;;;14.12;100.00;96101.97;1023077;29;20435;-69
2022/09/01 02:21:43;;;;;;;32.53;24.67;;;;;;;14.11;100.00;96106.41;1023171;29;20125;-69
2022/09/01 02:22:13;;;;;;;33.97;25.58;;;;;;;14.19;100.00;96112.97;1031166;28;20076;-71
2022/09/01 02:22:44;;;;;;;32.22;23.88;;;;;;;14.17;100.00;96112.47;1023180;29;20066;-71
2022/09/01 02:23:16;;;;;;;30.17;23.40;;;;;;;14.18;100.00;96110.59;1034946;28;20037;-68
2022/09/01 02:24:01;;;;;;;32.13;23.98;;;;;;;14.17;100.00;96112.47;1023020;29;20179;-70
2022/09/01 02:24:34;;;;;;;34.75;24.77;;;;;;;14.20;100.00;96116.41;1031142;28;20081;-69
2022/09/01 02:25:05;;;;;;;32.53;24.48;;;;;;;14.20;100.00;96109.28;1023243;28;20041;-69
2022/09/01 02:25:42;;;;;;;29.48;23.67;;;;;;;14.19;100.00;96105.06;1027020;28;20031;-69
2022/09/01 02:26:15;;;;;;;31.45;24.73;;;;;;;14.20;100.00;96119.81;1031060;28;20034;-69
2022/09/01 02:26:46;;;;;;;30.80;24.20;;;;;;;14.19;100.00;96112.97;1023193;28;20432;-72
2022/09/01 02:27:24;;;;;;;31.88;24.65;;;;;;;14.19;100.00;96107.69;1026983;28;20111;-70
2022/09/01 02:27:55;;;;;;;31.00;24.17;;;;;;;14.17;100.00;96109.03;1031100;28;20057;-70
2022/09/01 02:28:27;;;;;;;30.02;23.00;;;;;;;14.13;100.00;96103.53;1031112;28;20350;-70
2022/09/01 02:29:03;;;;;;;33.85;24.42;;;;;;;14.12;100.00;96104.59;1027078;28;20031;-69
2022/09/01 02:29:33;;;;;;;32.90;24.83;;;;;;;14.11;100.00;96103.78;1026946;28;20536;-70